Time;durP1;ratioP1;P1;durP2;ratioP2;P2;SDS_P1;SDS_P2;PMS_P1;PMS_P2;Temp;Humidity;BMP_temperature;BMP_pressure;BME280_temperature;BME280_humidity;BME280_pressure;Samples;Min_cycle;Max_cycle;Signal;HPM_P1;HPM_P2
2023/06/17 00:00:44;;;;;;;18.48;16.25;;;16.90;99.90;;;;;;4592007;19;20086;-25
2023/06/17 00:02:35;;;;;;;18.25;15.80;;;16.90;99.90;;;;;;4591219;19;20465;-24
2023/06/17 00:04:07;;;;;;;16.58;14.85;;;16.90;99.90;;;;;;4590654;19;20027;-28
2023/06/17 00:05:39;;;;;;;17.52;15.63;;;16.80;99.90;;;;;;4590712;19;20038;-26
2023/06/17 00:07:11;;;;;;;17.98;16.00;;;16.80;99.90;;;;;;4591181;19;20018;-24
2023/06/17 00:08:43;;;;;;;;;;;16.80;99.90;;;;;;4591362;19;20006;-25
2023/06/17 00:10:14;;;;;;;18.50;15.98;;;16.80;99.90;;;;;;4590843;19;20020;-28
2023/06/17 00:11:45;;;;;;;20.30;16.80;;;16.80;99.90;;;;;;4591206;19;20011;-25
2023/06/17 00:13:19;;;;;;;;;;;16.80;99.90;;;;;;4592068;19;20011;-26
2023/06/17 00:14:53;;;;;;;22.67;18.30;;;16.80;99.90;;;;;;4591824;19;19921;-24
2023/06/17 00:16:24;;;;;;;20.38;17.00;;;16.80;99.90;;;;;;4588712;19;20029;-26
2023/06/17 00:18:00;;;;;;;18.70;16.65;;;16.80;99.90;;;;;;4590466;19;20479;-23
2023/06/17 00:19:31;;;;;;;18.80;16.50;;;16.80;99.90;;;;;;4590012;19;20014;-24
2023/06/17 00:21:08;;;;;;;19.45;16.60;;;16.80;99.90;;;;;;4590629;19;20341;-25
2023/06/17 00:22:43;;;;;;;18.23;16.33;;;16.80;99.90;;;;;;4589179;19;20003;-25
2023/06/17 00:24:17;;;;;;;20.02;16.48;;;16.80;99.90;;;;;;4588730;19;20077;-27
2023/06/17 00:25:49;;;;;;;18.27;16.25;;;16.80;99.90;;;;;;4589490;19;20034;-24
2023/06/17 00:27:22;;;;;;;16.77;14.98;;;16.80;99.90;;;;;;4589943;19;20010;-25
2023/06/17 00:28:54;;;;;;;15.95;14.32;;;16.80;99.90;;;;;;4589518;19;20002;-24
2023/06/17 00:30:25;;;;;;;18.42;15.48;;;16.80;99.90;;;;;;4590957;19;20032;-26
2023/06/17 00:31:57;;;;;;;18.40;16.17;;;16.80;99.90;;;;;;4591242;19;20077;-24
2023/06/17 00:33:30;;;;;;;19.60;15.93;;;16.80;99.90;;;;;;4591295;19;20006;-24
2023/06/17 00:35:05;;;;;;;18.77;15.63;;;16.80;99.90;;;;;;4591602;19;19998;-26
2023/06/17 00:36:37;;;;;;;17.65;15.05;;;16.80;99.90;;;;;;4589686;19;20021;-25
2023/06/17 00:38:08;;;;;;;17.98;16.13;;;16.80;99.90;;;;;;4590278;19;20031;-24
2023/06/17 00:39:41;;;;;;;16.80;14.98;;;16.80;99.90;;;;;;4590908;19;20457;-25
2023/06/17 00:41:12;;;;;;;16.45;14.07;;;16.80;99.90;;;;;;4588445;19;20508;-24
2023/06/17 00:42:47;;;;;;;17.23;15.15;;;16.80;99.90;;;;;;4590513;19;20046;-23
2023/06/17 00:44:19;;;;;;;18.10;14.98;;;16.80;99.90;;;;;;4589890;19;20007;-25
2023/06/17 00:45:50;;;;;;;;;;;16.80;99.90;;;;;;4591441;19;20059;-25
2023/06/17 00:47:21;;;;;;;18.23;16.27;;;16.80;99.90;;;;;;4589095;19;19922;-26
2023/06/17 00:48:53;;;;;;;19.30;17.17;;;16.80;99.90;;;;;;4590322;19;20031;-24
2023/06/17 00:50:28;;;;;;;19.02;17.02;;;16.70;99.90;;;;;;4589614;19;20463;-24
2023/06/17 00:52:04;;;;;;;18.52;16.25;;;16.70;99.90;;;;;;4588913;19;20398;-23
2023/06/17 00:53:35;;;;;;;17.63;15.85;;;16.70;99.90;;;;;;4589226;19;20018;-24
2023/06/17 00:55:08;;;;;;;17.45;15.50;;;16.70;99.90;;;;;;4590163;19;20026;-27
2023/06/17 00:56:40;;;;;;;17.45;15.23;;;16.70;99.90;;;;;;4590998;19;20003;-27
2023/06/17 00:58:13;;;;;;;17.52;15.30;;;16.70;99.90;;;;;;4589552;19;20007;-25
2023/06/17 00:59:44;;;;;;;20.50;16.17;;;16.70;99.90;;;;;;4589092;19;20025;-27
2023/06/17 01:01:17;;;;;;;17.38;15.52;;;16.70;99.90;;;;;;4589706;19;20010;-23
2023/06/17 01:02:49;;;;;;;17.05;15.27;;;16.80;99.90;;;;;;4589468;19;20003;-23
2023/06/17 01:04:21;;;;;;;16.73;15.05;;;16.80;99.90;;;;;;4590237;19;20018;-26
2023/06/17 01:05:54;;;;;;;16.83;15.02;;;16.80;99.90;;;;;;4589657;19;20025;-24
2023/06/17 01:07:35;;;;;;;18.02;16.15;;;16.70;99.90;;;;;;4589227;19;20021;-24
2023/06/17 01:09:09;;;;;;;18.95;16.17;;;16.80;99.90;;;;;;4590729;19;20014;-24
2023/06/17 01:10:51;;;;;;;18.42;16.05;;;16.80;99.90;;;;;;4588867;19;20014;-25
2023/06/17 01:12:24;;;;;;;22.77;17.77;;;16.80;99.90;;;;;;4589695;19;20014;-26
2023/06/17 01:13:56;;;;;;;20.55;18.00;;;16.80;99.90;;;;;;4588861;19;20018;-24
2023/06/17 01:15:28;;;;;;;19.10;16.58;;;16.80;99.90;;;;;;4589196;19;20043;-23
2023/06/17 01:17:03;;;;;;;22.92;18.45;;;16.80;99.90;;;;;;4589057;19;20010;-25
2023/06/17 01:18:34;;;;;;;22.15;18.67;;;16.80;99.90;;;;;;4588791;19;20014;-29
2023/06/17 01:20:07;;;;;;;22.45;19.05;;;16.80;99.90;;;;;;4588789;19;20374;-24
2023/06/17 01:21:41;;;;;;;23.33;19.90;;;16.80;99.90;;;;;;4589899;19;20003;-24
2023/06/17 01:23:12;;;;;;;20.85;18.10;;;16.70;99.90;;;;;;4589221;19;20010;-24
2023/06/17 01:24:45;;;;;;;19.50;17.23;;;16.80;99.90;;;;;;4588774;19;20018;-24
2023/06/17 01:26:19;;;;;;;16.88;15.10;;;16.70;99.90;;;;;;4587967;19;20035;-25
2023/06/17 01:27:54;;;;;;;20.02;16.02;;;16.70;99.90;;;;;;4588963;19;20006;-23
2023/06/17 01:29:32;;;;;;;17.20;15.50;;;16.70;99.90;;;;;;4588861;19;20003;-27
2023/06/17 01:31:04;;;;;;;17.15;15.38;;;16.70;99.90;;;;;;4588406;19;20015;-27
2023/06/17 01:32:36;;;;;;;16.08;14.50;;;16.80;99.90;;;;;;4589416;19;20336;-24
2023/06/17 01:34:07;;;;;;;16.92;15.13;;;16.70;99.90;;;;;;4590546;19;20070;-28
2023/06/17 01:35:40;;;;;;;15.52;13.93;;;16.80;99.90;;;;;;4595043;19;20002;-23
2023/06/17 01:37:12;;;;;;;15.75;14.07;;;16.70;99.90;;;;;;4593022;19;20017;-24
2023/06/17 01:38:46;;;;;;;15.68;13.95;;;16.70;99.90;;;;;;4591968;19;20006;-26
2023/06/17 01:40:19;;;;;;;15.52;14.02;;;16.70;99.90;;;;;;4591488;19;20002;-24
2023/06/17 01:41:53;;;;;;;15.90;14.13;;;16.70;99.90;;;;;;4592925;19;20046;-25
2023/06/17 01:43:24;;;;;;;16.35;14.57;;;16.70;99.90;;;;;;4591794;19;20014;-24
2023/06/17 01:44:55;;;;;;;15.15;13.73;;;16.70;99.90;;;;;;4592242;19;20479;-24
2023/06/17 01:46:26;;;;;;;14.95;13.45;;;16.70;99.90;;;;;;4591265;19;20006;-26
2023/06/17 01:47:59;;;;;;;15.75;14.25;;;16.70;99.90;;;;;;4592057;19;20065;-25
2023/06/17 01:49:30;;;;;;;16.15;14.07;;;16.70;99.90;;;;;;4591878;19;20014;-24
2023/06/17 01:51:03;;;;;;;16.95;15.23;;;16.70;99.90;;;;;;4592338;19;20067;-24
2023/06/17 01:52:36;;;;;;;15.95;14.35;;;16.70;99.90;;;;;;4592349;19;20017;-27
2023/06/17 01:54:07;;;;;;;16.15;14.43;;;16.70;99.90;;;;;;4591706;19;20020;-24
2023/06/17 01:55:42;;;;;;;16.60;14.98;;;16.70;99.90;;;;;;4591726;19;20019;-24
2023/06/17 01:57:13;;;;;;;17.60;15.75;;;16.70;99.90;;;;;;4592304;19;20053;-23
2023/06/17 01:58:45;;;;;;;17.52;15.73;;;16.70;99.90;;;;;;4592354;19;20384;-24
2023/06/17 02:00:18;;;;;;;17.58;15.80;;;16.60;99.90;;;;;;4591571;19;20010;-24
2023/06/17 02:01:49;;;;;;;16.25;14.57;;;16.60;99.90;;;;;;4591984;19;20003;-24
2023/06/17 02:03:22;;;;;;;17.73;15.88;;;16.60;99.90;;;;;;4592000;19;20074;-23
2023/06/17 02:04:54;;;;;;;17.63;15.80;;;16.60;99.90;;;;;;4591604;19;20078;-25
2023/06/17 02:06:26;;;;;;;17.52;15.73;;;16.60;99.90;;;;;;4590495;19;20011;-29
2023/06/17 02:07:59;;;;;;;18.67;16.67;;;16.60;99.90;;;;;;4591969;19;20423;-26
2023/06/17 02:09:31;;;;;;;16.98;15.25;;;16.60;99.90;;;;;;4591921;19;20014;-24
2023/06/17 02:11:02;;;;;;;17.30;15.43;;;16.60;99.90;;;;;;4593956;19;20015;-23
2023/06/17 02:12:35;;;;;;;17.05;14.88;;;16.60;99.90;;;;;;4592564;19;20018;-24
2023/06/17 02:14:06;;;;;;;16.75;14.82;;;16.60;99.90;;;;;;4593308;19;20021;-28
2023/06/17 02:15:42;;;;;;;15.15;13.63;;;16.60;99.90;;;;;;4594068;19;20018;-24
2023/06/17 02:17:14;;;;;;;16.15;14.55;;;16.60;99.90;;;;;;4593830;19;20022;-27
2023/06/17 02:18:48;;;;;;;15.13;13.63;;;16.60;99.90;;;;;;4592357;19;20022;-23
2023/06/17 02:20:20;;;;;;;17.13;14.40;;;16.60;99.90;;;;;;4593120;19;20010;-26
2023/06/17 02:21:53;;;;;;;14.82;13.32;;;16.60;99.90;;;;;;4593957;19;20015;-23
2023/06/17 02:23:26;;;;;;;16.02;14.45;;;16.60;99.90;;;;;;4594458;19;20010;-27
2023/06/17 02:24:57;;;;;;;14.82;13.43;;;16.70;99.90;;;;;;4592338;19;20011;-24
2023/06/17 02:26:29;;;;;;;15.57;14.05;;;16.60;99.90;;;;;;4592298;19;20023;-28
2023/06/17 02:28:01;;;;;;;15.02;13.52;;;16.60;99.90;;;;;;4593005;19;19998;-25
2023/06/17 02:29:32;;;;;;;16.17;14.60;;;16.60;99.90;;;;;;4593078;19;20096;-24
2023/06/17 02:31:05;;;;;;;18.02;16.15;;;16.60;99.90;;;;;;4593308;19;20077;-23
2023/06/17 02:32:37;;;;;;;15.05;13.55;;;16.60;99.90;;;;;;4593777;19;20427;-27
2023/06/17 02:34:10;;;;;;;14.95;13.55;;;16.60;99.90;;;;;;4593418;19;20003;-24
2023/06/17 02:35:43;;;;;;;15.10;13.60;;;16.60;99.90;;;;;;4593106;19;20026;-25
2023/06/17 02:37:16;;;;;;;15.73;14.23;;;16.60;99.90;;;;;;4593129;19;20082;-24
2023/06/17 02:38:50;;;;;;;14.98;13.45;;;16.60;99.90;;;;;;4593204;19;20031;-30
2023/06/17 02:40:22;;;;;;;14.68;13.07;;;16.60;99.90;;;;;;4592921;19;20019;-23
2023/06/17 02:41:54;;;;;;;15.15;13.65;;;16.50;99.90;;;;;;4593131;19;20018;-25
2023/06/17 02:43:25;;;;;;;15.23;13.63;;;16.50;99.90;;;;;;4593039;19;20017;-21
2023/06/17 02:44:56;;;;;;;16.10;14.40;;;16.50;99.90;;;;;;4593241;19;19994;-28
2023/06/17 02:46:27;;;;;;;16.05;14.55;;;16.50;99.90;;;;;;4590570;19;20022;-28
2023/06/17 02:48:00;;;;;;;16.52;14.82;;;16.50;99.90;;;;;;4592867;19;20032;-23
2023/06/17 02:49:31;;;;;;;15.57;14.00;;;16.50;99.90;;;;;;4593227;19;20018;-23
2023/06/17 02:51:04;;;;;;;15.52;13.98;;;16.50;99.90;;;;;;4593640;19;20010;-27
2023/06/17 02:52:37;;;;;;;18.13;16.33;;;16.50;99.90;;;;;;4593426;19;20066;-24
2023/06/17 02:54:10;;;;;;;16.88;15.27;;;16.50;99.90;;;;;;4592790;19;20018;-24
2023/06/17 02:55:45;;;;;;;17.25;15.55;;;16.50;99.90;;;;;;4593164;19;20014;-27
2023/06/17 02:57:17;;;;;;;19.15;17.35;;;16.50;99.90;;;;;;4592129;19;20062;-23
2023/06/17 02:58:49;;;;;;;17.77;16.05;;;16.50;99.90;;;;;;4592854;19;20084;-25
2023/06/17 03:00:20;;;;;;;16.58;14.98;;;16.50;99.90;;;;;;4592604;19;20014;-22
2023/06/17 03:01:53;;;;;;;15.10;13.63;;;16.50;99.90;;;;;;4590412;19;20365;-27
2023/06/17 03:03:34;;;;;;;15.57;14.07;;;16.50;99.90;;;;;;4592373;19;20007;-29
2023/06/17 03:05:07;;;;;;;16.98;15.27;;;16.50;99.90;;;;;;4592493;19;20035;-24
2023/06/17 03:06:40;;;;;;;;;;;16.40;99.90;;;;;;4592518;19;20017;-24
2023/06/17 03:08:14;;;;;;;16.60;14.90;;;16.40;99.90;;;;;;4592596;19;19941;-22
2023/06/17 03:09:47;;;;;;;16.13;14.55;;;16.50;99.90;;;;;;4592290;19;20341;-24
2023/06/17 03:11:19;;;;;;;15.90;14.30;;;16.50;99.90;;;;;;4592744;19;20015;-24
2023/06/17 03:12:52;;;;;;;15.90;14.38;;;16.40;99.90;;;;;;4592485;19;20010;-24
2023/06/17 03:14:25;;;;;;;16.52;14.93;;;16.40;99.90;;;;;;4592950;19;20385;-23
2023/06/17 03:15:58;;;;;;;;;;;16.40;99.90;;;;;;4594108;19;20015;-24
2023/06/17 03:17:31;;;;;;;16.15;14.65;;;16.40;99.90;;;;;;4592179;19;19922;-25
2023/06/17 03:19:04;;;;;;;17.00;15.40;;;16.40;99.90;;;;;;4592465;19;20378;-24
2023/06/17 03:20:38;;;;;;;15.70;14.20;;;16.40;99.90;;;;;;4592696;19;20066;-23
2023/06/17 03:22:10;;;;;;;17.20;15.48;;;16.40;99.90;;;;;;4592918;19;20062;-24
2023/06/17 03:23:42;;;;;;;15.57;14.07;;;16.40;99.90;;;;;;4592404;19;20009;-25
2023/06/17 03:25:15;;;;;;;16.48;14.77;;;16.30;99.90;;;;;;4592064;19;20386;-28
2023/06/17 03:26:46;;;;;;;16.17;14.52;;;16.40;99.90;;;;;;4591582;19;20492;-23
2023/06/17 03:28:18;;;;;;;;;;;16.40;99.90;;;;;;4591621;19;20018;-25
2023/06/17 03:29:49;;;;;;;16.35;14.77;;;16.40;99.90;;;;;;4591693;19;19911;-24
2023/06/17 03:31:22;;;;;;;18.73;16.83;;;16.30;99.90;;;;;;4592433;19;20010;-26
2023/06/17 03:32:57;;;;;;;17.52;15.88;;;16.40;99.90;;;;;;4592543;19;20007;-25
2023/06/17 03:34:28;;;;;;;17.48;15.88;;;16.40;99.90;;;;;;4592192;19;20070;-23
2023/06/17 03:35:59;;;;;;;16.85;15.25;;;16.40;99.90;;;;;;4590770;19;20047;-22
2023/06/17 03:37:31;;;;;;;16.67;15.20;;;16.40;99.90;;;;;;4591516;19;20526;-26
2023/06/17 03:39:04;;;;;;;17.25;15.60;;;16.40;99.90;;;;;;4592212;19;20011;-27
2023/06/17 03:40:38;;;;;;;17.38;15.75;;;16.40;99.90;;;;;;4591845;19;20021;-25
2023/06/17 03:42:09;;;;;;;17.15;15.55;;;16.40;99.90;;;;;;4590743;19;20506;-25
2023/06/17 03:43:42;;;;;;;17.15;15.55;;;16.40;99.90;;;;;;4591657;19;20043;-23
2023/06/17 03:45:13;;;;;;;17.92;16.33;;;16.40;99.90;;;;;;4592600;19;20002;-23
2023/06/17 03:46:44;;;;;;;18.08;16.38;;;16.40;99.90;;;;;;4591646;19;19998;-24
2023/06/17 03:48:17;;;;;;;17.35;15.85;;;16.40;99.90;;;;;;4590889;19;20502;-23
2023/06/17 03:49:49;;;;;;;17.90;16.30;;;16.50;99.90;;;;;;4591370;19;20034;-28
2023/06/17 03:51:20;;;;;;;18.73;17.02;;;16.40;99.90;;;;;;4592351;19;20014;-23
2023/06/17 03:52:53;;;;;;;18.75;16.95;;;16.40;99.90;;;;;;4590228;19;20014;-24
2023/06/17 03:54:24;;;;;;;20.23;18.23;;;16.50;99.90;;;;;;4591196;19;20020;-24
2023/06/17 03:55:56;;;;;;;20.40;18.27;;;16.50;99.90;;;;;;4591677;19;20025;-23
2023/06/17 03:57:27;;;;;;;22.30;20.10;;;16.50;99.90;;;;;;4591912;19;20006;-26
2023/06/17 03:58:58;;;;;;;19.02;17.17;;;16.40;99.90;;;;;;4591384;19;20006;-23
2023/06/17 04:00:29;;;;;;;20.73;18.85;;;16.50;99.90;;;;;;4592036;19;20014;-28
2023/06/17 04:02:01;;;;;;;19.23;17.52;;;16.50;99.90;;;;;;4591921;19;20014;-24
2023/06/17 04:03:34;;;;;;;18.25;16.65;;;16.50;99.90;;;;;;4592247;19;20074;-25
2023/06/17 04:05:06;;;;;;;17.58;15.90;;;16.50;99.90;;;;;;4590232;19;20483;-27
2023/06/17 04:06:37;;;;;;;20.08;18.33;;;16.50;99.90;;;;;;4590259;19;20090;-23
2023/06/17 04:08:11;;;;;;;20.67;18.77;;;16.50;99.90;;;;;;4591788;19;20468;-27
2023/06/17 04:09:45;;;;;;;21.83;19.67;;;16.50;99.90;;;;;;4590619;19;20013;-23
2023/06/17 04:11:18;;;;;;;19.60;17.80;;;16.50;99.90;;;;;;4590771;19;20086;-24
2023/06/17 04:12:49;;;;;;;20.45;18.55;;;16.50;99.90;;;;;;4591282;19;20010;-24
2023/06/17 04:14:20;;;;;;;19.30;17.52;;;16.50;99.90;;;;;;4591654;19;20011;-24
2023/06/17 04:15:52;;;;;;;19.40;17.67;;;16.50;99.90;;;;;;4591165;19;20014;-24
2023/06/17 04:17:23;;;;;;;18.50;16.80;;;16.60;99.90;;;;;;4589920;19;20014;-26
2023/06/17 04:18:55;;;;;;;18.95;17.15;;;16.60;99.90;;;;;;4590841;19;20011;-23
2023/06/17 04:20:26;;;;;;;18.88;17.17;;;16.50;99.90;;;;;;4591290;19;20464;-24
2023/06/17 04:21:59;;;;;;;19.90;18.10;;;16.50;99.90;;;;;;4590873;19;20018;-26
2023/06/17 04:23:31;;;;;;;19.52;17.73;;;16.60;99.90;;;;;;4591027;19;20113;-24
2023/06/17 04:25:03;;;;;;;19.63;17.83;;;16.60;99.90;;;;;;4591168;19;20108;-28
2023/06/17 04:26:35;;;;;;;20.77;18.88;;;16.60;99.90;;;;;;4589276;19;20011;-29
2023/06/17 04:28:07;;;;;;;;;;;16.60;99.90;;;;;;4590365;19;20022;-24
2023/06/17 04:29:38;;;;;;;22.35;20.35;;;16.60;99.90;;;;;;4589822;19;19917;-24
2023/06/17 04:31:10;;;;;;;22.10;20.02;;;16.60;99.90;;;;;;4590853;19;20459;-24
2023/06/17 04:32:44;;;;;;;21.13;19.30;;;16.60;99.90;;;;;;4591161;19;20356;-24
2023/06/17 04:34:26;;;;;;;21.10;19.25;;;16.70;99.90;;;;;;4590708;19;20033;-25
2023/06/17 04:35:58;;;;;;;21.40;19.50;;;16.70;99.90;;;;;;4590825;19;20031;-23
2023/06/17 04:37:32;;;;;;;20.45;18.73;;;16.70;99.90;;;;;;4590123;19;20459;-23
2023/06/17 04:39:03;;;;;;;22.67;20.75;;;16.70;99.90;;;;;;4590826;19;20024;-24
2023/06/17 04:40:36;;;;;;;23.05;21.02;;;16.70;99.90;;;;;;4590092;19;20039;-27
2023/06/17 04:42:18;;;;;;;22.92;20.92;;;16.70;99.90;;;;;;4589536;19;20022;-25
2023/06/17 04:43:49;;;;;;;23.10;21.00;;;16.70;99.90;;;;;;4590594;19;20065;-25
2023/06/17 04:45:20;;;;;;;22.35;20.38;;;16.80;99.90;;;;;;4591075;19;20030;-25
2023/06/17 04:46:52;;;;;;;23.73;21.60;;;16.80;99.90;;;;;;4588403;19;20011;-25
2023/06/17 04:48:23;;;;;;;22.85;20.70;;;16.80;99.90;;;;;;4589794;19;20006;-29
2023/06/17 04:49:55;;;;;;;;;;;16.80;99.90;;;;;;4591688;19;20459;-25
2023/06/17 04:51:26;;;;;;;24.05;21.85;;;16.80;99.90;;;;;;4591023;19;19923;-27
2023/06/17 04:53:03;;;;;;;23.75;21.65;;;16.80;99.90;;;;;;4589228;19;20428;-24
2023/06/17 04:54:34;;;;;;;23.40;21.30;;;16.90;99.90;;;;;;4589115;19;20013;-28
2023/06/17 04:56:06;;;;;;;;;;;16.90;99.90;;;;;;4590881;19;20010;-27
2023/06/17 04:57:38;;;;;;;23.58;21.40;;;16.90;99.90;;;;;;4591137;19;19918;-25
2023/06/17 04:59:09;;;;;;;26.48;24.08;;;16.90;99.90;;;;;;4590164;19;20081;-25
2023/06/17 05:00:40;;;;;;;24.20;22.02;;;16.90;99.90;;;;;;4590489;19;20022;-28
2023/06/17 05:02:13;;;;;;;25.27;22.98;;;17.00;99.90;;;;;;4589415;19;20026;-24
2023/06/17 05:03:44;;;;;;;;;;;17.00;99.90;;;;;;4590529;19;20011;-23
2023/06/17 05:05:16;;;;;;;26.08;23.67;;;17.00;99.90;;;;;;4588909;19;20325;-24
2023/06/17 05:06:49;;;;;;;25.17;22.95;;;17.10;99.90;;;;;;4588826;19;20370;-26
2023/06/17 05:08:20;;;;;;;25.63;23.40;;;17.10;99.90;;;;;;4590056;19;20356;-22
2023/06/17 05:09:51;;;;;;;25.63;23.35;;;17.10;99.90;;;;;;4588849;19;20014;-25
2023/06/17 05:11:22;;;;;;;25.08;22.92;;;17.10;99.90;;;;;;4590262;19;20007;-24
2023/06/17 05:12:54;;;;;;;26.40;24.10;;;17.20;99.90;;;;;;4590609;19;20019;-24
2023/06/17 05:14:26;;;;;;;25.05;22.95;;;17.10;99.90;;;;;;4590309;19;20007;-23
2023/06/17 05:15:57;;;;;;;26.67;24.27;;;17.20;99.90;;;;;;4589626;19;20015;-25
2023/06/17 05:19:57;;;;;;;27.73;25.33;;;17.20;99.90;;;;;;4590752;19;20018;-26
2023/06/17 05:21:28;;;;;;;30.55;27.83;;;17.20;99.90;;;;;;4590447;19;20043;-24
2023/06/17 05:22:59;;;;;;;29.13;26.52;;;17.20;99.90;;;;;;4589351;19;20014;-25
2023/06/17 05:24:30;;;;;;;;;;;17.30;99.90;;;;;;4586446;19;20965;-26
2023/06/17 05:26:02;;;;;;;26.73;24.33;;;17.30;99.90;;;;;;4588786;19;19922;-24
2023/06/17 05:27:33;;;;;;;28.08;25.58;;;17.30;99.90;;;;;;4588602;19;20022;-26
2023/06/17 05:29:06;;;;;;;27.17;24.77;;;17.40;99.90;;;;;;4588229;19;20023;-22
2023/06/17 05:30:39;;;;;;;27.08;24.65;;;17.40;99.90;;;;;;4588295;19;20029;-23
2023/06/17 05:32:11;;;;;;;26.90;24.55;;;17.40;99.90;;;;;;4588521;19;20014;-23
2023/06/17 05:33:42;;;;;;;27.55;25.15;;;17.40;99.90;;;;;;4589148;19;20011;-26
2023/06/17 05:35:13;;;;;;;27.52;25.13;;;17.40;99.90;;;;;;4590234;19;20018;-28
2023/06/17 05:36:44;;;;;;;27.90;25.42;;;17.40;99.90;;;;;;4589017;19;20032;-24
2023/06/17 05:38:15;;;;;;;25.90;23.70;;;17.40;99.90;;;;;;4588163;19;20014;-29
2023/06/17 05:39:47;;;;;;;27.17;24.77;;;17.40;99.90;;;;;;4590788;19;20455;-24
2023/06/17 05:41:18;;;;;;;;;;;17.40;99.90;;;;;;4587916;19;20074;-25
2023/06/17 05:42:49;;;;;;;26.42;24.10;;;17.40;99.90;;;;;;4590014;19;19922;-25
2023/06/17 05:44:21;;;;;;;26.20;23.83;;;17.40;99.90;;;;;;4590129;19;20011;-27
2023/06/17 05:45:52;;;;;;;27.35;24.80;;;17.40;99.90;;;;;;4590099;19;20010;-27
2023/06/17 05:47:23;;;;;;;27.10;24.67;;;17.40;99.90;;;;;;4587763;19;20045;-28
2023/06/17 05:48:54;;;;;;;27.17;24.77;;;17.50;99.90;;;;;;4590068;19;20015;-28
2023/06/17 05:50:25;;;;;;;27.25;24.77;;;17.40;99.90;;;;;;4589304;19;20015;-25
2023/06/17 05:51:56;;;;;;;26.85;24.55;;;17.50;99.90;;;;;;4590324;19;20470;-24
2023/06/17 05:53:27;;;;;;;26.10;23.83;;;17.50;99.90;;;;;;4590020;19;20040;-26
2023/06/17 05:54:58;;;;;;;27.58;25.05;;;17.50;99.90;;;;;;4589358;19;20015;-25
2023/06/17 05:56:30;;;;;;;26.23;23.92;;;17.50;99.90;;;;;;4585405;19;20062;-23
2023/06/17 05:58:01;;;;;;;26.58;24.27;;;17.50;99.90;;;;;;4588780;19;20010;-23
2023/06/17 05:59:32;;;;;;;26.38;24.05;;;17.50;99.90;;;;;;4588956;19;20021;-29
2023/06/17 06:01:03;;;;;;;26.13;23.77;;;17.50;99.90;;;;;;4588212;19;20018;-24
2023/06/17 06:02:34;;;;;;;25.50;23.35;;;17.50;99.90;;;;;;4588884;19;20038;-26
2023/06/17 06:04:07;;;;;;;26.67;24.35;;;17.50;99.90;;;;;;4587901;19;20078;-27
2023/06/17 06:05:40;;;;;;;25.00;22.83;;;17.60;99.90;;;;;;4589406;19;20039;-24
2023/06/17 06:07:11;;;;;;;25.88;23.58;;;17.50;99.90;;;;;;4587402;19;20014;-28
2023/06/17 06:08:43;;;;;;;24.95;22.85;;;17.60;99.90;;;;;;4587425;19;20483;-28
2023/06/17 06:10:14;;;;;;;25.98;23.73;;;17.60;99.90;;;;;;4588409;19;20406;-26
2023/06/17 06:11:46;;;;;;;26.45;24.05;;;17.60;99.90;;;;;;4586969;19;20440;-23
2023/06/17 06:13:17;;;;;;;24.85;22.58;;;17.70;99.90;;;;;;4589545;19;20474;-23
2023/06/17 06:14:49;;;;;;;24.75;22.52;;;17.60;99.90;;;;;;4589418;19;20019;-27
2023/06/17 06:16:20;;;;;;;25.42;23.27;;;17.70;99.90;;;;;;4588564;19;20022;-24
2023/06/17 06:17:52;;;;;;;26.38;24.02;;;17.70;99.90;;;;;;4589078;19;20022;-29
2023/06/17 06:19:23;;;;;;;24.15;22.00;;;17.70;99.90;;;;;;4589169;19;20494;-28
2023/06/17 06:20:54;;;;;;;25.55;23.25;;;17.70;99.90;;;;;;4589034;19;20014;-25
2023/06/17 06:22:26;;;;;;;25.67;23.17;;;17.80;99.90;;;;;;4591907;19;20119;-24
2023/06/17 06:23:59;;;;;;;25.15;22.95;;;17.80;99.90;;;;;;4594300;19;20018;-26
2023/06/17 06:25:30;;;;;;;24.90;22.70;;;17.80;99.90;;;;;;4592033;19;20022;-25
2023/06/17 06:27:01;;;;;;;26.17;23.85;;;17.80;99.90;;;;;;4591979;19;20017;-23
2023/06/17 06:28:32;;;;;;;;;;;17.80;99.90;;;;;;4593260;19;20455;-28
2023/06/17 06:30:04;;;;;;;25.00;22.70;;;17.80;99.90;;;;;;4593258;19;19988;-23
2023/06/17 06:31:35;;;;;;;;;;;17.90;99.90;;;;;;4593958;19;20019;-23
2023/06/17 06:33:06;;;;;;;22.33;20.33;;;17.80;99.90;;;;;;4593341;19;19922;-28
2023/06/17 06:34:40;;;;;;;25.30;23.10;;;17.80;99.90;;;;;;4592899;19;20022;-28
2023/06/17 06:36:11;;;;;;;24.77;22.58;;;17.80;99.90;;;;;;4592103;19;20018;-26
2023/06/17 06:37:42;;;;;;;24.23;22.13;;;17.90;99.90;;;;;;4591878;19;20018;-26
2023/06/17 06:39:13;;;;;;;24.08;21.98;;;17.90;99.90;;;;;;4591539;19;20014;-25
2023/06/17 06:40:44;;;;;;;24.08;21.95;;;17.90;99.90;;;;;;4592172;19;20023;-27
2023/06/17 06:42:16;;;;;;;25.02;22.75;;;17.90;99.90;;;;;;4592039;19;20018;-23
2023/06/17 06:43:47;;;;;;;24.17;22.02;;;17.90;99.90;;;;;;4593041;19;20006;-29
2023/06/17 06:45:19;;;;;;;25.45;23.25;;;17.90;99.90;;;;;;4592913;19;20018;-23
2023/06/17 06:46:51;;;;;;;23.70;21.50;;;17.90;99.90;;;;;;4592090;19;20010;-24
2023/06/17 06:48:22;;;;;;;25.20;22.98;;;17.90;99.90;;;;;;4592533;19;20058;-23
2023/06/17 06:49:53;;;;;;;24.92;22.73;;;17.90;99.90;;;;;;4592603;19;20018;-25
2023/06/17 06:51:26;;;;;;;25.02;22.83;;;17.90;99.90;;;;;;4593651;19;20011;-24
2023/06/17 06:52:57;;;;;;;26.70;24.30;;;17.90;99.90;;;;;;4592389;19;20023;-23
2023/06/17 06:54:28;;;;;;;23.48;21.40;;;17.90;99.90;;;;;;4593485;19;20333;-25
2023/06/17 06:56:00;;;;;;;18.92;17.23;;;17.90;99.90;;;;;;4591240;19;20082;-26
2023/06/17 06:57:33;;;;;;;18.42;16.73;;;18.20;99.90;;;;;;4592857;19;20088;-25
2023/06/17 06:59:05;;;;;;;16.50;14.98;;;18.60;99.90;;;;;;4592515;19;20018;-28
2023/06/17 07:00:36;;;;;;;15.73;14.25;;;18.90;99.90;;;;;;4590652;19;20014;-24
2023/06/17 07:02:08;;;;;;;15.52;14.02;;;19.20;99.90;;;;;;4592864;19;20070;-26
2023/06/17 07:03:39;;;;;;;15.05;13.75;;;19.50;99.90;;;;;;4592279;19;20049;-26
2023/06/17 07:05:11;;;;;;;;;;;19.70;99.90;;;;;;4594168;19;20029;-28
2023/06/17 07:06:42;;;;;;;13.52;12.27;;;19.90;99.90;;;;;;4589916;19;19919;-24
2023/06/17 07:08:13;;;;;;;14.13;12.82;;;20.10;99.90;;;;;;4589524;19;20021;-24
2023/06/17 07:09:45;;;;;;;13.27;12.13;;;20.30;99.90;;;;;;4591879;19;20022;-26
2023/06/17 07:11:17;;;;;;;13.07;11.98;;;20.50;99.90;;;;;;4593057;19;20005;-25
2023/06/17 07:12:48;;;;;;;11.85;10.77;;;20.70;99.90;;;;;;4591481;19;20017;-26
2023/06/17 07:14:20;;;;;;;11.13;10.13;;;20.80;99.90;;;;;;4591251;19;20019;-24
2023/06/17 07:15:53;;;;;;;10.55;9.65;;;21.00;99.90;;;;;;4591359;19;20002;-28
2023/06/17 07:17:24;;;;;;;10.30;9.25;;;21.10;99.90;;;;;;4592721;19;20096;-25
2023/06/17 07:18:56;;;;;;;;;;;21.20;99.90;;;;;;4591906;19;20040;-24
2023/06/17 07:20:27;;;;;;;9.05;8.25;;;21.30;99.90;;;;;;4591366;19;19922;-25
2023/06/17 07:21:58;;;;;;;8.85;8.05;;;21.40;99.90;;;;;;4592506;19;20010;-24
2023/06/17 07:23:29;;;;;;;8.15;7.35;;;21.50;99.90;;;;;;4591683;19;20467;-26
2023/06/17 07:25:02;;;;;;;8.05;7.25;;;21.60;99.90;;;;;;4591674;19;20366;-29
2023/06/17 07:26:33;;;;;;;8.52;7.72;;;21.70;99.90;;;;;;4590527;19;20011;-27
2023/06/17 07:28:05;;;;;;;7.70;7.00;;;21.80;99.90;;;;;;4591895;19;20018;-25
2023/06/17 07:29:37;;;;;;;7.78;7.07;;;21.80;99.90;;;;;;4590686;19;20026;-26
2023/06/17 07:31:08;;;;;;;8.13;7.38;;;21.80;99.90;;;;;;4589702;19;20023;-25
2023/06/17 07:32:39;;;;;;;8.38;7.30;;;21.90;99.90;;;;;;4591698;19;20025;-26
2023/06/17 07:34:10;;;;;;;7.20;6.50;;;21.90;99.90;;;;;;4593442;19;20074;-25
2023/06/17 07:35:41;;;;;;;8.50;7.70;;;21.90;99.90;;;;;;4591940;19;20086;-28
2023/06/17 07:37:14;;;;;;;7.00;6.40;;;21.90;99.90;;;;;;4592892;19;20495;-23
2023/06/17 07:38:45;;;;;;;7.55;6.70;;;21.90;99.90;;;;;;4591291;19;20517;-27
2023/06/17 07:40:17;;;;;;;7.63;6.93;;;22.00;99.90;;;;;;4590988;19;20093;-29
2023/06/17 07:41:49;;;;;;;7.57;6.78;;;22.00;99.90;;;;;;4592085;19;20014;-26
2023/06/17 07:43:22;;;;;;;8.23;6.78;;;22.00;99.90;;;;;;4590691;19;20017;-22
2023/06/17 07:44:53;;;;;;;8.20;7.47;;;22.10;99.90;;;;;;4592652;19;20024;-28
2023/06/17 07:46:26;;;;;;;6.75;6.15;;;22.10;99.90;;;;;;4591613;19;20472;-25
2023/06/17 07:47:57;;;;;;;6.82;6.13;;;22.10;99.90;;;;;;4590361;19;20014;-24
2023/06/17 07:49:29;;;;;;;7.47;6.78;;;22.10;99.90;;;;;;4591073;19;20370;-24
2023/06/17 07:51:01;;;;;;;6.88;6.28;;;22.10;99.90;;;;;;4591762;19;20014;-25
2023/06/17 07:52:34;;;;;;;6.55;5.95;;;22.10;99.90;;;;;;4591535;19;20054;-24
2023/06/17 07:54:05;;;;;;;7.00;6.30;;;22.10;99.90;;;;;;4591695;19;20010;-25